createdAt,value
2023-03-02T00:02:47.159Z,9.98
2023-03-02T00:05:54.410Z,7.85
2023-03-02T00:09:00.953Z,9.93
2023-03-02T00:12:08.129Z,8.25
2023-03-02T00:15:13.734Z,7.97
2023-03-02T00:18:19.356Z,6.45
2023-03-02T00:21:24.939Z,9.93
2023-03-02T00:24:30.328Z,10.82
2023-03-02T00:27:36.218Z,14.68
2023-03-02T00:30:41.773Z,8.27
2023-03-02T00:33:47.351Z,6.55
2023-03-02T00:36:53.263Z,6.43
2023-03-02T00:39:59.764Z,6.78
2023-03-02T00:43:05.536Z,5.65
2023-03-02T00:46:19.766Z,12.55
2023-03-02T00:49:25.494Z,7.63
2023-03-02T00:52:32.970Z,5.00
2023-03-02T00:55:38.773Z,5.75
2023-03-02T00:58:44.716Z,4.28
2023-03-02T01:01:58.426Z,4.78
2023-03-02T01:05:06.161Z,11.13
2023-03-02T01:08:12.840Z,5.30
2023-03-02T01:11:22.890Z,6.80
2023-03-02T01:14:30.139Z,7.63
2023-03-02T01:17:35.967Z,6.50
2023-03-02T01:20:41.772Z,6.10
2023-03-02T01:23:47.430Z,8.27
2023-03-02T01:26:53.580Z,8.60
2023-03-02T01:29:59.425Z,8.40
2023-03-02T01:33:05.245Z,7.78
2023-03-02T01:36:10.517Z,6.88
2023-03-02T01:39:16.273Z,5.05
2023-03-02T01:42:21.861Z,7.22
2023-03-02T01:46:02.749Z,6.93
2023-03-02T01:49:18.948Z,6.35
2023-03-02T01:52:35.439Z,9.40
2023-03-02T01:55:41.276Z,5.90
2023-03-02T01:58:51.658Z,6.85
2023-03-02T02:02:00.437Z,6.25
2023-03-02T02:05:14.310Z,8.32
2023-03-02T02:11:25.927Z,5.85
2023-03-02T02:14:31.513Z,7.32
2023-03-02T02:17:37.019Z,8.30
2023-03-02T02:20:46.694Z,6.97
2023-03-02T02:24:01.332Z,8.60
2023-03-02T02:27:07.283Z,8.65
2023-03-02T02:30:15.744Z,7.18
2023-03-02T02:33:25.167Z,8.10
2023-03-02T02:36:38.088Z,7.82
2023-03-02T02:39:50.140Z,7.15
2023-03-02T02:42:57.999Z,8.25
2023-03-02T02:46:04.031Z,5.70
2023-03-02T02:49:35.534Z,6.47
2023-03-02T02:52:41.825Z,9.90
2023-03-02T02:55:51.469Z,8.40
2023-03-02T02:59:02.495Z,8.82
2023-03-02T03:02:25.140Z,5.85
2023-03-02T03:05:30.822Z,7.15
2023-03-02T03:08:49.391Z,7.55
2023-03-02T03:12:15.977Z,11.38
2023-03-02T03:15:21.991Z,12.07
2023-03-02T03:18:27.457Z,18.73
2023-03-02T03:21:33.267Z,16.20
2023-03-02T03:24:41.458Z,15.20
2023-03-02T03:27:47.920Z,14.30
2023-03-02T03:30:54.313Z,18.67
2023-03-02T03:34:02.163Z,13.02
2023-03-02T03:37:16.259Z,15.18
2023-03-02T03:40:22.311Z,15.13
2023-03-02T03:43:27.537Z,15.52
2023-03-02T03:46:33.850Z,14.27
2023-03-02T03:49:39.924Z,16.08
2023-03-02T03:52:46.860Z,14.15
2023-03-02T03:56:01.355Z,12.40
2023-03-02T03:59:11.040Z,14.15
2023-03-02T04:02:22.153Z,13.35
2023-03-02T04:05:28.086Z,16.65
2023-03-02T04:08:34.335Z,19.02
2023-03-02T04:11:42.680Z,21.40
2023-03-02T04:14:49.033Z,24.30
2023-03-02T04:17:54.730Z,30.60
2023-03-02T04:21:02.178Z,32.55
2023-03-02T04:24:08.221Z,32.22
2023-03-02T04:27:15.470Z,30.35
2023-03-02T04:30:25.372Z,32.42
2023-03-02T04:33:30.677Z,32.28
2023-03-02T04:36:38.801Z,31.70
2023-03-02T04:39:51.433Z,37.85
2023-03-02T04:42:57.306Z,39.67
2023-03-02T04:46:03.400Z,32.42
2023-03-02T04:49:09.160Z,34.15
2023-03-02T04:52:14.305Z,31.58
2023-03-02T04:55:23.520Z,31.70
2023-03-02T04:58:29.146Z,33.58
2023-03-02T05:01:34.697Z,30.90
2023-03-02T05:04:41.517Z,30.30
2023-03-02T05:07:47.605Z,34.53
2023-03-02T05:10:52.982Z,31.88
2023-03-02T05:14:01.038Z,33.97
2023-03-02T05:17:06.833Z,31.08
2023-03-02T05:20:12.777Z,36.40
2023-03-02T05:23:25.572Z,33.38
2023-03-02T05:26:31.648Z,39.97
2023-03-02T05:29:37.396Z,31.73
2023-03-02T05:32:42.902Z,34.90
2023-03-02T05:35:48.876Z,33.08
2023-03-02T05:38:54.280Z,33.95
2023-03-02T05:41:59.356Z,39.80
2023-03-02T05:45:06.080Z,37.55
2023-03-02T05:48:14.443Z,38.67
2023-03-02T05:51:20.074Z,33.72
2023-03-02T05:54:25.463Z,37.83
2023-03-02T05:57:31.109Z,35.25
2023-03-02T06:00:36.439Z,36.47
2023-03-02T06:03:42.105Z,35.30
2023-03-02T06:06:47.956Z,35.45
2023-03-02T06:09:53.440Z,36.15
2023-03-02T06:12:58.872Z,37.53
2023-03-02T06:16:04.707Z,35.67
2023-03-02T06:19:10.087Z,36.78
2023-03-02T06:22:15.201Z,35.22
2023-03-02T06:25:23.355Z,40.38
2023-03-02T06:28:28.767Z,38.85
2023-03-02T06:31:34.831Z,37.83
2023-03-02T06:34:40.626Z,34.33
2023-03-02T06:37:46.114Z,38.58
2023-03-02T06:40:51.673Z,42.72
2023-03-02T06:43:56.925Z,36.88
2023-03-02T06:47:02.794Z,35.45
2023-03-02T06:50:09.672Z,39.67
2023-03-02T06:53:18.021Z,39.83
2023-03-02T06:56:24.072Z,37.97
2023-03-02T06:59:29.969Z,36.35
2023-03-02T07:02:36.802Z,37.05
2023-03-02T07:05:44.514Z,41.15
2023-03-02T07:08:51.528Z,36.92
2023-03-02T07:11:57.630Z,38.05
2023-03-02T07:15:04.206Z,40.58
2023-03-02T07:18:09.841Z,40.13
2023-03-02T07:21:14.713Z,41.40
2023-03-02T07:24:20.229Z,38.25
2023-03-02T07:27:25.435Z,42.20
2023-03-02T07:30:31.376Z,42.00
2023-03-02T07:33:38.773Z,45.67
2023-03-02T07:36:44.871Z,42.40
2023-03-02T07:39:50.458Z,42.15
2023-03-02T07:42:56.007Z,44.42
2023-03-02T07:46:01.773Z,44.45
2023-03-02T07:49:07.298Z,53.10
2023-03-02T07:52:12.789Z,46.97
2023-03-02T07:55:18.177Z,46.75
2023-03-02T07:58:24.534Z,50.53
2023-03-02T08:01:30.101Z,56.28
2023-03-02T08:04:36.239Z,47.40
2023-03-02T08:07:42.523Z,50.70
2023-03-02T08:10:48.069Z,52.08
2023-03-02T08:13:53.638Z,49.30
2023-03-02T08:16:59.447Z,46.38
2023-03-02T08:20:05.755Z,51.95
2023-03-02T08:23:11.132Z,55.30
2023-03-02T08:26:18.141Z,50.55
2023-03-02T08:29:24.840Z,45.10
2023-03-02T08:32:30.006Z,53.95
2023-03-02T08:35:35.610Z,47.20
2023-03-02T08:38:42.054Z,50.20
2023-03-02T08:41:51.223Z,46.83
2023-03-02T08:44:56.691Z,45.10
2023-03-02T08:48:02.592Z,41.47
2023-03-02T08:51:12.595Z,45.08
2023-03-02T08:54:18.117Z,44.05
2023-03-02T08:57:23.949Z,41.40
2023-03-02T09:00:31.587Z,43.97
2023-03-02T09:03:37.478Z,38.00
2023-03-02T09:06:45.037Z,29.33
2023-03-02T09:09:50.213Z,33.20
2023-03-02T09:12:55.777Z,28.15
2023-03-02T09:16:02.266Z,30.95
2023-03-02T09:19:08.123Z,26.00
2023-03-02T09:22:13.591Z,12.27
2023-03-02T09:25:19.405Z,19.98
2023-03-02T09:28:25.226Z,15.82
2023-03-02T09:31:31.276Z,19.00
2023-03-02T09:34:36.788Z,18.55
2023-03-02T09:37:44.355Z,15.77
2023-03-02T09:40:50.564Z,15.18
2023-03-02T09:44:38.537Z,15.30
2023-03-02T09:48:01.904Z,11.65
2023-03-02T09:51:34.351Z,13.38
2023-03-02T09:54:40.788Z,13.25
2023-03-02T09:57:47.377Z,13.48
2023-03-02T10:00:52.891Z,11.98
2023-03-02T10:04:09.708Z,10.23
2023-03-02T10:07:17.375Z,16.60
2023-03-02T10:10:29.587Z,4.50
2023-03-02T10:13:48.695Z,3.63
2023-03-02T10:17:37.737Z,3.92
2023-03-02T10:20:53.307Z,3.10
2023-03-02T10:24:09.607Z,5.05
2023-03-02T10:27:26.915Z,4.28
2023-03-02T10:30:37.389Z,3.95
2023-03-02T10:33:43.314Z,3.17
2023-03-02T10:36:49.107Z,4.82
2023-03-02T10:39:55.393Z,3.58
2023-03-02T10:43:01.964Z,6.78
2023-03-02T10:46:10.644Z,6.70
2023-03-02T10:49:36.895Z,6.68
2023-03-02T10:52:59.483Z,5.15
2023-03-02T10:56:06.888Z,4.50
2023-03-02T10:59:46.916Z,4.07
2023-03-02T11:02:59.290Z,3.03
2023-03-02T11:06:27.030Z,3.67
2023-03-02T11:09:32.607Z,4.60
2023-03-02T11:12:37.995Z,3.28
2023-03-02T11:15:52.962Z,5.13
2023-03-02T11:19:08.833Z,4.03
2023-03-02T11:22:32.190Z,3.20
2023-03-02T11:25:44.643Z,4.00
2023-03-02T11:29:03.556Z,6.72
2023-03-02T11:32:09.104Z,8.13
2023-03-02T11:35:29.757Z,4.72
2023-03-02T11:38:53.026Z,3.53
2023-03-02T11:41:59.056Z,4.75
2023-03-02T11:45:20.061Z,9.57
2023-03-02T11:48:42.919Z,5.47
2023-03-02T11:51:58.380Z,4.68
2023-03-02T11:55:34.591Z,6.07
2023-03-02T11:58:42.590Z,6.60
2023-03-02T12:01:52.865Z,8.43
2023-03-02T12:05:08.472Z,6.05
2023-03-02T12:08:20.262Z,7.50
2023-03-02T12:11:34.546Z,5.07
2023-03-02T12:14:41.256Z,5.57
2023-03-02T12:17:46.681Z,5.55
2023-03-02T12:21:10.353Z,8.70
2023-03-02T12:24:32.081Z,7.22
2023-03-02T12:27:42.129Z,4.70
2023-03-02T12:30:56.865Z,6.15
2023-03-02T12:34:36.576Z,6.72
2023-03-02T12:37:51.410Z,4.38
2023-03-02T12:41:13.271Z,5.90
2023-03-02T12:44:39.461Z,5.80
2023-03-02T12:47:49.808Z,4.40
2023-03-02T12:51:04.115Z,7.20
2023-03-02T12:54:19.022Z,6.45
2023-03-02T12:57:24.720Z,5.63
2023-03-02T13:00:33.062Z,6.60
2023-03-02T13:03:46.348Z,7.53
2023-03-02T13:06:53.968Z,7.05
2023-03-02T13:09:59.847Z,5.22
2023-03-02T13:13:23.099Z,10.68
2023-03-02T13:16:32.879Z,6.20
2023-03-02T13:19:38.569Z,5.78
2023-03-02T13:22:44.691Z,4.55
2023-03-02T13:25:56.463Z,7.63
2023-03-02T13:29:13.874Z,4.65
2023-03-02T13:32:34.848Z,4.55
2023-03-02T13:35:47.756Z,10.55
2023-03-02T13:38:55.992Z,7.28
2023-03-02T13:42:03.372Z,7.50
2023-03-02T13:45:28.877Z,7.70
2023-03-02T13:48:34.460Z,4.50
2023-03-02T13:51:47.691Z,5.90
2023-03-02T13:54:53.124Z,5.30
2023-03-02T13:58:00.334Z,5.82
2023-03-02T14:01:06.772Z,6.88
2023-03-02T14:04:19.561Z,7.00
2023-03-02T14:07:24.652Z,5.82
2023-03-02T14:10:29.889Z,8.00
2023-03-02T14:13:37.710Z,6.60
2023-03-02T14:16:43.302Z,5.40
2023-03-02T14:19:53.197Z,10.63
2023-03-02T14:22:58.797Z,6.22
2023-03-02T14:26:07.271Z,6.07
2023-03-02T14:29:32.148Z,7.90
2023-03-02T14:32:37.699Z,6.07
2023-03-02T14:35:44.478Z,5.35
2023-03-02T14:38:50.074Z,8.50
2023-03-02T14:41:56.428Z,9.00
2023-03-02T14:45:02.020Z,6.07
2023-03-02T14:48:07.431Z,5.40
2023-03-02T14:51:26.912Z,16.92
2023-03-02T14:54:57.095Z,8.00
2023-03-02T14:58:20.376Z,3.45
2023-03-02T15:01:26.262Z,6.85
2023-03-02T15:04:31.828Z,6.70
2023-03-02T15:07:39.456Z,5.70
2023-03-02T15:10:47.178Z,4.53
2023-03-02T15:13:52.600Z,4.82
2023-03-02T15:16:58.129Z,6.88
2023-03-02T15:20:04.179Z,4.80
2023-03-02T15:23:09.440Z,6.57
2023-03-02T15:26:15.682Z,4.82
2023-03-02T15:29:21.462Z,5.80
2023-03-02T15:32:27.483Z,5.65
2023-03-02T15:35:33.428Z,4.93
2023-03-02T15:38:39.245Z,9.85
2023-03-02T15:41:45.328Z,7.05
2023-03-02T15:44:51.192Z,6.35
2023-03-02T15:47:56.665Z,5.22
2023-03-02T15:51:04.388Z,5.68
2023-03-02T15:54:11.248Z,6.75
2023-03-02T15:57:17.853Z,9.05
2023-03-02T16:00:23.676Z,23.38
2023-03-02T16:03:29.701Z,21.67
2023-03-02T16:06:35.154Z,13.40
2023-03-02T16:09:40.584Z,9.70
2023-03-02T16:12:46.542Z,9.88
2023-03-02T16:15:52.517Z,12.05
2023-03-02T16:18:59.288Z,10.45
2023-03-02T16:22:04.972Z,8.82
2023-03-02T16:25:10.658Z,12.93
2023-03-02T16:28:18.775Z,6.80
2023-03-02T16:31:27.230Z,12.60
2023-03-02T16:34:32.778Z,8.23
2023-03-02T16:37:38.761Z,8.40
2023-03-02T16:40:43.914Z,6.78
2023-03-02T16:43:52.059Z,7.47
2023-03-02T16:46:57.735Z,8.82
2023-03-02T16:50:04.712Z,6.88
2023-03-02T16:53:10.465Z,6.53
2023-03-02T16:56:16.408Z,7.55
2023-03-02T16:59:21.588Z,7.35
2023-03-02T17:02:27.178Z,7.45
2023-03-02T17:05:32.493Z,8.82
2023-03-02T17:08:38.421Z,15.50
2023-03-02T17:11:43.958Z,12.68
2023-03-02T17:14:49.567Z,10.60
2023-03-02T17:17:54.972Z,11.02
2023-03-02T17:21:01.296Z,14.93
2023-03-02T17:24:07.564Z,12.25
2023-03-02T17:27:24.611Z,10.68
2023-03-02T17:30:30.942Z,14.38
2023-03-02T17:33:38.264Z,12.10
2023-03-02T17:36:46.763Z,14.55
2023-03-02T17:39:52.672Z,12.25
2023-03-02T17:42:58.073Z,15.10
2023-03-02T17:46:23.031Z,13.70
2023-03-02T17:49:28.518Z,10.13
2023-03-02T17:52:34.074Z,11.75
2023-03-02T17:55:39.705Z,13.75
2023-03-02T17:58:47.037Z,11.75
2023-03-02T18:01:52.438Z,10.38
2023-03-02T18:04:57.884Z,12.48
2023-03-02T18:08:03.925Z,11.50
2023-03-02T18:11:10.055Z,10.25
2023-03-02T18:14:17.624Z,11.20
2023-03-02T18:17:23.122Z,9.95
2023-03-02T18:20:28.420Z,16.95
2023-03-02T18:23:33.993Z,12.13
2023-03-02T18:26:39.879Z,10.45
2023-03-02T18:29:45.523Z,13.88
2023-03-02T18:32:50.990Z,13.32
2023-03-02T18:35:57.868Z,11.15
2023-03-02T18:39:04.202Z,13.98
2023-03-02T18:42:12.271Z,13.50
2023-03-02T18:45:29.505Z,16.20
2023-03-02T18:48:35.042Z,14.82
2023-03-02T18:51:40.456Z,11.55
2023-03-02T18:54:47.209Z,13.07
2023-03-02T18:57:54.137Z,10.80
2023-03-02T19:00:59.594Z,12.00
2023-03-02T19:04:05.327Z,16.70
2023-03-02T19:07:10.917Z,13.25
2023-03-02T19:10:17.095Z,13.45
2023-03-02T19:13:24.367Z,14.57
2023-03-02T19:16:29.867Z,12.23
2023-03-02T19:19:35.745Z,13.52
2023-03-02T19:22:41.229Z,14.93
2023-03-02T19:25:46.251Z,15.07
2023-03-02T19:28:52.219Z,18.92
2023-03-02T19:31:58.022Z,14.35
2023-03-02T19:35:04.396Z,14.57
2023-03-02T19:38:11.264Z,13.13
2023-03-02T19:41:20.661Z,13.43
2023-03-02T19:44:26.281Z,16.85
2023-03-02T19:47:32.422Z,15.90
2023-03-02T19:50:37.629Z,13.63
2023-03-02T19:53:44.421Z,13.80
2023-03-02T19:56:53.775Z,17.38
2023-03-02T19:59:59.676Z,15.90
2023-03-02T20:03:06.527Z,17.88
2023-03-02T20:06:12.006Z,13.40
2023-03-02T20:09:20.062Z,17.55
2023-03-02T20:12:25.501Z,15.63
2023-03-02T20:15:34.221Z,13.77
2023-03-02T20:18:41.656Z,12.90
2023-03-02T20:21:47.156Z,20.70
2023-03-02T20:24:52.734Z,13.70
2023-03-02T20:27:59.055Z,12.40
2023-03-02T20:31:09.183Z,14.93
2023-03-02T20:34:17.822Z,13.82
2023-03-02T20:37:26.240Z,14.05
2023-03-02T20:40:33.001Z,14.07
2023-03-02T20:43:39.853Z,17.27
2023-03-02T20:46:50.237Z,14.68
2023-03-02T20:49:57.810Z,17.95
2023-03-02T20:53:05.601Z,18.17
2023-03-02T20:56:12.957Z,17.48
2023-03-02T20:59:18.399Z,23.42
2023-03-02T21:02:27.249Z,17.23
2023-03-02T21:05:35.305Z,19.50
2023-03-02T21:08:41.307Z,17.48
2023-03-02T21:11:47.591Z,17.75
2023-03-02T21:14:54.977Z,14.27
2023-03-02T21:18:00.886Z,14.45
2023-03-02T21:21:06.405Z,21.77
2023-03-02T21:24:18.505Z,17.35
2023-03-02T21:27:24.392Z,18.88
2023-03-02T21:30:34.292Z,15.85
2023-03-02T21:33:40.025Z,23.10
2023-03-02T21:36:46.794Z,22.30
2023-03-02T21:39:53.281Z,19.23
2023-03-02T21:42:59.350Z,20.65
2023-03-02T21:46:05.511Z,20.92
2023-03-02T21:49:16.406Z,19.58
2023-03-02T21:52:21.917Z,23.60
2023-03-02T21:55:29.425Z,24.00
2023-03-02T21:58:35.210Z,29.10
2023-03-02T22:01:41.608Z,28.58
2023-03-02T22:04:47.225Z,26.02
2023-03-02T22:07:52.620Z,34.72
2023-03-02T22:10:57.997Z,28.38
2023-03-02T22:14:15.173Z,27.90
2023-03-02T22:17:24.869Z,33.10
2023-03-02T22:20:32.697Z,23.30
2023-03-02T22:23:38.238Z,25.27
2023-03-02T22:26:47.555Z,27.27
2023-03-02T22:29:57.151Z,23.85
2023-03-02T22:33:02.828Z,30.42
2023-03-02T22:36:21.342Z,30.95
2023-03-02T22:39:32.749Z,31.23
2023-03-02T22:42:38.194Z,30.87
2023-03-02T22:45:44.715Z,30.85
2023-03-02T22:48:52.406Z,30.63
2023-03-02T22:52:03.578Z,38.38
2023-03-02T22:55:47.996Z,35.55
2023-03-02T22:58:54.077Z,34.38
2023-03-02T23:02:02.977Z,39.88
2023-03-02T23:05:28.196Z,28.67
2023-03-02T23:08:33.611Z,30.10
2023-03-02T23:11:42.343Z,31.48
2023-03-02T23:14:53.326Z,32.17
2023-03-02T23:17:59.155Z,33.00
2023-03-02T23:21:14.454Z,30.10
2023-03-02T23:24:22.346Z,34.65
2023-03-02T23:27:28.452Z,30.27
2023-03-02T23:30:34.949Z,34.03
2023-03-02T23:33:41.020Z,27.67
2023-03-02T23:36:46.620Z,36.80
2023-03-02T23:39:52.668Z,35.72
2023-03-02T23:42:58.496Z,38.95
2023-03-02T23:46:03.794Z,32.88
2023-03-02T23:49:09.471Z,33.13
2023-03-02T23:52:14.877Z,35.45
2023-03-02T23:55:20.217Z,32.72
2023-03-02T23:58:25.913Z,38.05
